Rochester, MA

6:20 AM EST on January 27, 2015 (GMT -0500)
Cape Cod Coast Guard Air Station | Change Station
CLOSE
Current Station
Airport
Location: Cape Cod CGAS,
Elevation: 131 ft
Nearby Weather Stations
Active Advisory: Blizzard Warning Active Notice: Public Information Statement

Elev 131 ft 41.66 °N, 70.52 °W | Updated 5 minutes ago

Snow
Snow
27 °F
Feels Like 10 °F
N
31
Wind Variable Wind from NNE
Gusts 53 mph

Today
High -- | Low -- °F
--% Chance of Precip.
Yesterday
High -- | Low -- °F
Precip. -- in
7:00 AM 4:52 PM
First Quarter, 53% visible
Pressure 29.34 in
Visibility 0.2 miles
Clouds Overcast 200 ft
Windchill 10 °F
Dew Point 27 °F
Humidity 100%
Rainfall 0.00 in
Snow Depth Not available.
UV 0 out of 12
Pollen .10 out of 12
Air Quality Not available.
Flu Activity Not available.
METAR KFMH 271115Z AUTO 02027G46KT 1/4SM VCTS SN OVC002 M03/M03 A2934 RMK AO2 LTG DSNT N

More Conditions Fewer Conditions

Pressure 29.34 in
Visibility 0.2 miles
Clouds Overcast 200 ft
Windchill 10 °F
Dew Point 27 °F
Humidity 100%
Rainfall 0.00 in
Snow Depth Not available.
UV 0 out of 12
Pollen .10 out of 12
Air Quality Not available.
Flu Activity Not available.
METAR KFMH 271115Z AUTO 02027G46KT 1/4SM VCTS SN OVC002 M03/M03 A2934 RMK AO2 LTG DSNT N

More Conditions Fewer Conditions

10-Day Weather Forecast

Almanac

Astronomy

Jan. 27, 2015 Rise Set
Actual Time
Civil Twilight
Nautical Twilight
Astronomical Twilight
Moon
Length of Visible Light
Length of Day
Tomorrow will be .
, % of the Moon is Illuminated

Today's Extremes

State Highs State Lows

Community

WunderPhotos

Upload Photos

1,790,564 photos uploaded!

WunderBlogs® & News

Nearby

Air Quality

  Air Quality AQ Index Pollutant
Not available.

Snow Depth

Station Depth Elevation

Earthquake Activity

City Distance Mag. Time & Date
Minimum magnitude displayed is 2.5.

Coastal Water Temperatures

Place Temperature

Nearby Weather Stations